sensor_id;sensor_type;location;lat;lon;timestamp;pressure;altitude;pressure_sealevel;temperature;humidity
43161;BME280;40968;52.342;5.528;2024-01-06T00:00:42;100412.59;;;4.48;90.57
43161;BME280;40968;52.342;5.528;2024-01-06T00:03:09;100234.84;;;3.36;90.44
43161;BME280;40968;52.342;5.528;2024-01-06T00:05:35;100410.53;;;4.37;90.72
43161;BME280;40968;52.342;5.528;2024-01-06T00:08:02;100415.94;;;4.36;91.14
43161;BME280;40968;52.342;5.528;2024-01-06T00:10:29;100338.72;;;3.92;91.32
43161;BME280;40968;52.342;5.528;2024-01-06T00:12:55;100424.91;;;4.33;91.43
43161;BME280;40968;52.342;5.528;2024-01-06T00:15:22;100405.66;;;4.29;91.39
43161;BME280;40968;52.342;5.528;2024-01-06T00:17:50;100192.44;;;2.87;91.12
43161;BME280;40968;52.342;5.528;2024-01-06T00:20:17;100427.38;;;4.20;91.29
43161;BME280;40968;52.342;5.528;2024-01-06T00:22:43;100239.38;;;3.01;91.12
43161;BME280;40968;52.342;5.528;2024-01-06T00:25:10;100426.69;;;4.17;91.57
43161;BME280;40968;52.342;5.528;2024-01-06T00:27:37;100158.97;;;2.52;91.46
43161;BME280;40968;52.342;5.528;2024-01-06T00:30:05;100422.44;;;4.14;91.67
43161;BME280;40968;52.342;5.528;2024-01-06T00:32:31;100357.09;;;3.79;91.61
43161;BME280;40968;52.342;5.528;2024-01-06T00:34:59;100433.38;;;4.24;91.41
43161;BME280;40968;52.342;5.528;2024-01-06T00:37:26;100041.25;;;1.75;91.14
43161;BME280;40968;52.342;5.528;2024-01-06T00:39:52;100273.75;;;3.18;91.59
43161;BME280;40968;52.342;5.528;2024-01-06T00:42:19;100397.22;;;3.89;91.52
43161;BME280;40968;52.342;5.528;2024-01-06T00:44:45;100200.88;;;2.60;91.27
43161;BME280;40968;52.342;5.528;2024-01-06T00:47:12;100433.94;;;3.97;91.68
43161;BME280;40968;52.342;5.528;2024-01-06T00:49:39;100418.94;;;3.80;91.53
43161;BME280;40968;52.342;5.528;2024-01-06T00:52:07;100263.91;;;2.87;91.77
43161;BME280;40968;52.342;5.528;2024-01-06T00:54:33;100388.41;;;3.55;91.68
43161;BME280;40968;52.342;5.528;2024-01-06T00:57:00;100387.78;;;3.50;91.70
43161;BME280;40968;52.342;5.528;2024-01-06T00:59:26;100459.50;;;3.98;92.38
43161;BME280;40968;52.342;5.528;2024-01-06T01:01:53;100261.97;;;2.73;91.78
43161;BME280;40968;52.342;5.528;2024-01-06T01:04:20;100282.59;;;2.84;91.63
43161;BME280;40968;52.342;5.528;2024-01-06T01:06:46;100303.22;;;2.94;91.44
43161;BME280;40968;52.342;5.528;2024-01-06T01:09:14;100165.50;;;2.10;91.21
43161;BME280;40968;52.342;5.528;2024-01-06T01:11:41;100464.44;;;3.88;91.64
43161;BME280;40968;52.342;5.528;2024-01-06T01:14:08;100468.88;;;3.88;91.34
43161;BME280;40968;52.342;5.528;2024-01-06T01:16:34;100428.59;;;3.63;91.67
43161;BME280;40968;52.342;5.528;2024-01-06T01:19:01;100467.09;;;3.88;91.59
43161;BME280;40968;52.342;5.528;2024-01-06T01:21:28;100446.59;;;3.74;91.69
43161;BME280;40968;52.342;5.528;2024-01-06T01:23:54;100449.25;;;3.74;91.67
43161;BME280;40968;52.342;5.528;2024-01-06T01:26:22;100483.94;;;3.87;91.69
43161;BME280;40968;52.342;5.528;2024-01-06T01:28:49;100303.22;;;2.77;91.61
43161;BME280;40968;52.342;5.528;2024-01-06T01:31:15;100318.72;;;2.85;91.53
43161;BME280;40968;52.342;5.528;2024-01-06T01:33:42;100427.84;;;3.44;91.50
43161;BME280;40968;52.342;5.528;2024-01-06T01:36:09;100444.28;;;3.51;91.50
43161;BME280;40968;52.342;5.528;2024-01-06T01:38:35;100269.44;;;2.47;91.56
43161;BME280;40968;52.342;5.528;2024-01-06T01:41:02;100500.16;;;3.81;91.59
43161;BME280;40968;52.342;5.528;2024-01-06T01:43:30;100466.91;;;3.58;91.61
43161;BME280;40968;52.342;5.528;2024-01-06T01:45:57;100504.59;;;3.80;91.93
43161;BME280;40968;52.342;5.528;2024-01-06T01:48:24;100476.31;;;3.63;91.79
43161;BME280;40968;52.342;5.528;2024-01-06T01:50:51;100512.47;;;3.82;92.08
43161;BME280;40968;52.342;5.528;2024-01-06T01:53:19;100439.84;;;3.34;92.07
43161;BME280;40968;52.342;5.528;2024-01-06T01:55:47;100319.06;;;2.59;92.10
43161;BME280;40968;52.342;5.528;2024-01-06T01:58:15;100524.63;;;3.86;92.49
43161;BME280;40968;52.342;5.528;2024-01-06T02:00:44;100529.81;;;3.89;92.16
43161;BME280;40968;52.342;5.528;2024-01-06T02:03:11;100528.06;;;3.88;92.36
43161;BME280;40968;52.342;5.528;2024-01-06T02:05:39;100457.63;;;3.49;92.61
43161;BME280;40968;52.342;5.528;2024-01-06T02:08:06;100544.84;;;3.89;92.11
43161;BME280;40968;52.342;5.528;2024-01-06T02:10:32;100284.97;;;2.36;92.10
43161;BME280;40968;52.342;5.528;2024-01-06T02:13:07;100515.97;;;3.65;91.66
43161;BME280;40968;52.342;5.528;2024-01-06T02:15:34;100511.16;;;3.56;91.82
43161;BME280;40968;52.342;5.528;2024-01-06T02:18:02;100298.63;;;2.26;91.73
43161;BME280;40968;52.342;5.528;2024-01-06T02:20:30;100536.81;;;3.73;91.88
43161;BME280;40968;52.342;5.528;2024-01-06T02:22:58;100464.13;;;3.24;91.66
43161;BME280;40968;52.342;5.528;2024-01-06T02:25:26;100567.53;;;3.77;91.45
43161;BME280;40968;52.342;5.528;2024-01-06T02:27:52;100144.16;;;1.22;91.11
43161;BME280;40968;52.342;5.528;2024-01-06T02:30:19;100565.97;;;3.73;91.15
43161;BME280;40968;52.342;5.528;2024-01-06T02:32:45;100549.88;;;3.58;90.87
43161;BME280;40968;52.342;5.528;2024-01-06T02:35:12;100537.25;;;3.46;90.91
43161;BME280;40968;52.342;5.528;2024-01-06T02:37:39;100538.81;;;3.50;91.13
43161;BME280;40968;52.342;5.528;2024-01-06T02:40:08;100477.31;;;2.89;90.59
43161;BME280;40968;52.342;5.528;2024-01-06T02:42:35;100506.16;;;3.13;91.03
43161;BME280;40968;52.342;5.528;2024-01-06T02:45:02;100374.25;;;2.30;90.92
43161;BME280;40968;52.342;5.528;2024-01-06T02:47:28;100471.53;;;2.81;91.11
43161;BME280;40968;52.342;5.528;2024-01-06T02:49:55;100594.50;;;3.68;91.52
43161;BME280;40968;52.342;5.528;2024-01-06T02:52:21;100604.00;;;3.72;91.59
43161;BME280;40968;52.342;5.528;2024-01-06T02:54:48;100371.31;;;2.37;91.40
43161;BME280;40968;52.342;5.528;2024-01-06T02:57:16;100604.78;;;3.74;91.62
43161;BME280;40968;52.342;5.528;2024-01-06T02:59:43;100451.56;;;2.74;91.61
43161;BME280;40968;52.342;5.528;2024-01-06T03:02:11;100429.91;;;2.65;91.51
43161;BME280;40968;52.342;5.528;2024-01-06T03:04:37;100491.38;;;3.09;91.66
43161;BME280;40968;52.342;5.528;2024-01-06T03:07:04;100599.72;;;3.69;91.54
43161;BME280;40968;52.342;5.528;2024-01-06T03:09:30;100626.47;;;3.82;91.50
43161;BME280;40968;52.342;5.528;2024-01-06T03:11:57;100598.22;;;3.63;91.18
43161;BME280;40968;52.342;5.528;2024-01-06T03:14:25;100630.22;;;3.78;91.25
43161;BME280;40968;52.342;5.528;2024-01-06T03:16:52;100632.03;;;3.77;91.40
43161;BME280;40968;52.342;5.528;2024-01-06T03:19:18;100355.88;;;2.08;90.68
43161;BME280;40968;52.342;5.528;2024-01-06T03:21:45;100380.28;;;2.15;90.38
43161;BME280;40968;52.342;5.528;2024-01-06T03:24:12;100645.66;;;3.70;90.10
43161;BME280;40968;52.342;5.528;2024-01-06T03:26:38;100606.44;;;3.40;90.04
43161;BME280;40968;52.342;5.528;2024-01-06T03:29:05;100449.47;;;2.44;89.70
43161;BME280;40968;52.342;5.528;2024-01-06T03:31:33;100392.19;;;2.05;89.53
43161;BME280;40968;52.342;5.528;2024-01-06T03:33:59;100663.56;;;3.64;89.88
43161;BME280;40968;52.342;5.528;2024-01-06T03:36:26;100674.16;;;3.64;89.89
43161;BME280;40968;52.342;5.528;2024-01-06T03:38:52;100621.78;;;3.33;89.69
43161;BME280;40968;52.342;5.528;2024-01-06T03:41:19;100657.81;;;3.55;89.78
43161;BME280;40968;52.342;5.528;2024-01-06T03:43:46;100609.09;;;3.21;90.01
43161;BME280;40968;52.342;5.528;2024-01-06T03:46:12;100670.00;;;3.59;90.36
43161;BME280;40968;52.342;5.528;2024-01-06T03:48:40;100646.19;;;3.40;89.68
43161;BME280;40968;52.342;5.528;2024-01-06T03:51:07;100584.72;;;2.95;89.51
43161;BME280;40968;52.342;5.528;2024-01-06T03:53:33;100588.91;;;2.80;89.09
43161;BME280;40968;52.342;5.528;2024-01-06T03:56:00;100665.44;;;3.24;89.22
43161;BME280;40968;52.342;5.528;2024-01-06T03:58:26;100702.38;;;3.46;88.65
43161;BME280;40968;52.342;5.528;2024-01-06T04:00:53;100688.13;;;3.30;88.82
43161;BME280;40968;52.342;5.528;2024-01-06T04:03:19;100721.13;;;3.42;88.41
43161;BME280;40968;52.342;5.528;2024-01-06T04:05:47;100718.63;;;3.39;88.49
43161;BME280;40968;52.342;5.528;2024-01-06T04:08:14;100717.72;;;3.40;88.42
43161;BME280;40968;52.342;5.528;2024-01-06T04:10:41;100431.25;;;1.58;88.32
43161;BME280;40968;52.342;5.528;2024-01-06T04:13:08;100732.13;;;3.34;88.67
43161;BME280;40968;52.342;5.528;2024-01-06T04:15:34;100673.50;;;3.02;88.37
43161;BME280;40968;52.342;5.528;2024-01-06T04:18:02;100675.16;;;3.05;88.21
43161;BME280;40968;52.342;5.528;2024-01-06T04:20:29;100298.56;;;0.71;87.60
43161;BME280;40968;52.342;5.528;2024-01-06T04:22:57;100531.84;;;2.15;87.97
43161;BME280;40968;52.342;5.528;2024-01-06T04:25:23;100695.94;;;3.14;88.10
43161;BME280;40968;52.342;5.528;2024-01-06T04:27:50;100714.97;;;3.22;88.24
43161;BME280;40968;52.342;5.528;2024-01-06T04:30:17;100699.66;;;3.10;88.36
43161;BME280;40968;52.342;5.528;2024-01-06T04:32:45;100671.28;;;2.93;88.18
43161;BME280;40968;52.342;5.528;2024-01-06T04:35:13;100734.16;;;3.27;88.18
43161;BME280;40968;52.342;5.528;2024-01-06T04:37:40;100625.72;;;2.65;88.30
43161;BME280;40968;52.342;5.528;2024-01-06T04:40:09;100460.25;;;1.60;88.53
43161;BME280;40968;52.342;5.528;2024-01-06T04:42:36;100544.13;;;2.17;88.70
43161;BME280;40968;52.342;5.528;2024-01-06T04:45:03;100538.25;;;2.10;88.90
43161;BME280;40968;52.342;5.528;2024-01-06T04:47:30;100502.31;;;1.85;88.48
43161;BME280;40968;52.342;5.528;2024-01-06T04:49:57;100543.81;;;2.04;88.39
43161;BME280;40968;52.342;5.528;2024-01-06T04:52:23;100520.59;;;1.90;88.15
43161;BME280;40968;52.342;5.528;2024-01-06T04:54:50;100745.91;;;3.22;87.50
43161;BME280;40968;52.342;5.528;2024-01-06T04:57:18;100662.44;;;2.73;87.39
43161;BME280;40968;52.342;5.528;2024-01-06T04:59:46;100364.94;;;0.82;87.12
43161;BME280;40968;52.342;5.528;2024-01-06T05:02:12;100698.16;;;2.84;87.60
43161;BME280;40968;52.342;5.528;2024-01-06T05:04:39;100735.16;;;3.06;87.60
43161;BME280;40968;52.342;5.528;2024-01-06T05:07:06;100692.41;;;2.74;87.81
43161;BME280;40968;52.342;5.528;2024-01-06T05:09:32;100646.13;;;2.43;87.35
43161;BME280;40968;52.342;5.528;2024-01-06T05:11:59;100611.06;;;1.96;87.10
43161;BME280;40968;52.342;5.528;2024-01-06T05:14:27;100463.00;;;1.14;86.98
43161;BME280;40968;52.342;5.528;2024-01-06T05:16:53;100728.94;;;2.65;87.48
43161;BME280;40968;52.342;5.528;2024-01-06T05:19:20;100788.75;;;2.90;87.54
43161;BME280;40968;52.342;5.528;2024-01-06T05:21:47;100786.25;;;2.87;88.23
43161;BME280;40968;52.342;5.528;2024-01-06T05:24:14;100599.53;;;1.77;88.21
43161;BME280;40968;52.342;5.528;2024-01-06T05:26:40;100739.84;;;2.58;88.47
43161;BME280;40968;52.342;5.528;2024-01-06T05:29:07;100708.16;;;2.36;88.47
43161;BME280;40968;52.342;5.528;2024-01-06T05:31:35;100794.31;;;2.84;88.54
43161;BME280;40968;52.342;5.528;2024-01-06T05:34:02;100770.34;;;2.67;89.07
43161;BME280;40968;52.342;5.528;2024-01-06T05:36:29;100785.00;;;2.75;89.12
43161;BME280;40968;52.342;5.528;2024-01-06T05:38:55;100595.97;;;1.57;89.11
43161;BME280;40968;52.342;5.528;2024-01-06T05:41:22;100802.16;;;2.87;89.62
43161;BME280;40968;52.342;5.528;2024-01-06T05:43:48;100600.91;;;1.65;88.94
43161;BME280;40968;52.342;5.528;2024-01-06T05:46:20;100715.75;;;2.23;88.58
43161;BME280;40968;52.342;5.528;2024-01-06T05:48:48;100757.47;;;2.37;88.64
43161;BME280;40968;52.342;5.528;2024-01-06T05:51:15;100737.94;;;2.19;88.91
43161;BME280;40968;52.342;5.528;2024-01-06T05:53:41;100688.75;;;1.72;89.31
43161;BME280;40968;52.342;5.528;2024-01-06T05:56:08;100616.81;;;1.41;89.42
43161;BME280;40968;52.342;5.528;2024-01-06T05:58:35;100826.84;;;2.65;89.69
43161;BME280;40968;52.342;5.528;2024-01-06T06:01:02;100717.47;;;2.02;89.39
43161;BME280;40968;52.342;5.528;2024-01-06T06:03:28;100813.56;;;2.45;89.51
43161;BME280;40968;52.342;5.528;2024-01-06T06:05:56;100828.72;;;2.63;89.35
43161;BME280;40968;52.342;5.528;2024-01-06T06:08:23;100564.94;;;0.96;89.20
43161;BME280;40968;52.342;5.528;2024-01-06T06:10:49;100859.13;;;2.53;89.41
43161;BME280;40968;52.342;5.528;2024-01-06T06:13:26;100822.69;;;2.38;89.61
43161;BME280;40968;52.342;5.528;2024-01-06T06:15:53;100796.72;;;2.25;89.45
43161;BME280;40968;52.342;5.528;2024-01-06T06:18:20;100846.81;;;2.52;89.46
43161;BME280;40968;52.342;5.528;2024-01-06T06:20:47;100811.50;;;2.09;89.23
43161;BME280;40968;52.342;5.528;2024-01-06T06:23:14;100741.44;;;1.75;89.57
43161;BME280;40968;52.342;5.528;2024-01-06T06:25:41;100866.19;;;2.53;89.72
43161;BME280;40968;52.342;5.528;2024-01-06T06:28:08;100848.91;;;2.44;89.95
43161;BME280;40968;52.342;5.528;2024-01-06T06:30:34;100850.59;;;2.45;89.82
43161;BME280;40968;52.342;5.528;2024-01-06T06:33:01;100694.16;;;1.45;89.78
43161;BME280;40968;52.342;5.528;2024-01-06T06:35:27;100840.28;;;2.39;89.54
43161;BME280;40968;52.342;5.528;2024-01-06T06:37:54;100873.03;;;2.58;89.48
43161;BME280;40968;52.342;5.528;2024-01-06T06:40:22;100885.31;;;2.59;89.21
43161;BME280;40968;52.342;5.528;2024-01-06T06:42:48;100676.19;;;1.31;89.09
43161;BME280;40968;52.342;5.528;2024-01-06T06:45:15;100642.59;;;1.12;88.67
43161;BME280;40968;52.342;5.528;2024-01-06T06:47:41;100673.75;;;1.26;88.84
43161;BME280;40968;52.342;5.528;2024-01-06T06:50:08;100880.38;;;2.50;88.62
43161;BME280;40968;52.342;5.528;2024-01-06T06:52:35;100866.75;;;2.39;88.68
43161;BME280;40968;52.342;5.528;2024-01-06T06:55:02;100905.63;;;2.59;88.69
43161;BME280;40968;52.342;5.528;2024-01-06T06:57:30;100797.34;;;1.88;88.47
43161;BME280;40968;52.342;5.528;2024-01-06T06:59:56;100914.25;;;2.64;88.73
43161;BME280;40968;52.342;5.528;2024-01-06T07:02:23;100918.50;;;2.68;88.49
43161;BME280;40968;52.342;5.528;2024-01-06T07:04:50;100924.69;;;2.67;88.61
43161;BME280;40968;52.342;5.528;2024-01-06T07:07:16;100831.78;;;2.08;88.13
43161;BME280;40968;52.342;5.528;2024-01-06T07:09:43;100763.00;;;1.64;88.14
43161;BME280;40968;52.342;5.528;2024-01-06T07:12:09;100757.97;;;1.58;88.25
43161;BME280;40968;52.342;5.528;2024-01-06T07:14:37;100846.66;;;2.11;87.87
43161;BME280;40968;52.342;5.528;2024-01-06T07:17:04;100871.03;;;2.19;87.84
43161;BME280;40968;52.342;5.528;2024-01-06T07:19:31;100893.44;;;2.32;87.95
43161;BME280;40968;52.342;5.528;2024-01-06T07:21:58;100871.13;;;2.16;87.96
43161;BME280;40968;52.342;5.528;2024-01-06T07:24:25;100960.97;;;2.65;88.45
43161;BME280;40968;52.342;5.528;2024-01-06T07:26:52;100891.94;;;2.25;88.72
43161;BME280;40968;52.342;5.528;2024-01-06T07:29:19;100950.31;;;2.67;88.29
43161;BME280;40968;52.342;5.528;2024-01-06T07:31:47;100828.38;;;1.82;87.76
43161;BME280;40968;52.342;5.528;2024-01-06T07:34:13;100892.69;;;2.29;87.91
43161;BME280;40968;52.342;5.528;2024-01-06T07:36:41;100769.72;;;1.49;87.96
43161;BME280;40968;52.342;5.528;2024-01-06T07:39:07;100845.53;;;1.94;87.71
43161;BME280;40968;52.342;5.528;2024-01-06T07:41:34;100969.66;;;2.69;87.93
43161;BME280;40968;52.342;5.528;2024-01-06T07:44:01;100944.59;;;2.31;87.93
43161;BME280;40968;52.342;5.528;2024-01-06T07:46:28;100698.72;;;0.94;87.97
43161;BME280;40968;52.342;5.528;2024-01-06T07:48:57;100828.88;;;1.69;88.24
43161;BME280;40968;52.342;5.528;2024-01-06T07:51:24;100964.13;;;2.51;88.44
43161;BME280;40968;52.342;5.528;2024-01-06T07:53:51;100878.88;;;1.98;88.23
43161;BME280;40968;52.342;5.528;2024-01-06T07:56:18;100946.03;;;2.40;88.21
43161;BME280;40968;52.342;5.528;2024-01-06T07:58:44;100688.59;;;0.81;87.85
43161;BME280;40968;52.342;5.528;2024-01-06T08:01:11;100896.22;;;2.06;88.16
43161;BME280;40968;52.342;5.528;2024-01-06T08:03:38;101002.78;;;2.55;88.05
43161;BME280;40968;52.342;5.528;2024-01-06T08:06:06;100794.88;;;1.36;87.47
43161;BME280;40968;52.342;5.528;2024-01-06T08:08:33;100819.06;;;1.48;87.21
43161;BME280;40968;52.342;5.528;2024-01-06T08:11:00;100947.66;;;2.21;87.29
43161;BME280;40968;52.342;5.528;2024-01-06T08:13:27;101032.22;;;2.70;87.31
43161;BME280;40968;52.342;5.528;2024-01-06T08:15:54;100831.38;;;1.48;87.08
43161;BME280;40968;52.342;5.528;2024-01-06T08:18:20;101036.75;;;2.68;86.89
43161;BME280;40968;52.342;5.528;2024-01-06T08:20:47;101042.88;;;2.68;86.98
43161;BME280;40968;52.342;5.528;2024-01-06T08:23:15;101033.19;;;2.69;86.80
43161;BME280;40968;52.342;5.528;2024-01-06T08:25:44;100998.13;;;2.38;86.79
43161;BME280;40968;52.342;5.528;2024-01-06T08:28:11;101043.06;;;2.63;86.57
43161;BME280;40968;52.342;5.528;2024-01-06T08:30:39;101042.59;;;2.52;86.00
43161;BME280;40968;52.342;5.528;2024-01-06T08:33:06;101002.69;;;2.35;86.48
43161;BME280;40968;52.342;5.528;2024-01-06T08:35:33;100979.47;;;2.19;86.60
43161;BME280;40968;52.342;5.528;2024-01-06T08:38:05;100749.34;;;0.80;86.25
43161;BME280;40968;52.342;5.528;2024-01-06T08:40:33;101013.03;;;2.41;86.61
43161;BME280;40968;52.342;5.528;2024-01-06T08:43:00;100896.53;;;1.73;86.96
43161;BME280;40968;52.342;5.528;2024-01-06T08:45:26;101062.94;;;2.74;86.78
43161;BME280;40968;52.342;5.528;2024-01-06T08:47:53;101076.16;;;2.75;86.56
43161;BME280;40968;52.342;5.528;2024-01-06T08:50:19;100683.66;;;0.47;86.27
43161;BME280;40968;52.342;5.528;2024-01-06T08:52:46;101025.13;;;2.48;86.17
43161;BME280;40968;52.342;5.528;2024-01-06T08:55:12;101026.94;;;2.46;86.35
43161;BME280;40968;52.342;5.528;2024-01-06T08:57:40;100681.34;;;0.38;85.87
43161;BME280;40968;52.342;5.528;2024-01-06T09:00:08;100750.31;;;0.77;85.56
43161;BME280;40968;52.342;5.528;2024-01-06T09:02:36;101083.13;;;2.78;85.86
43161;BME280;40968;52.342;5.528;2024-01-06T09:05:03;101092.66;;;2.82;86.18
43161;BME280;40968;52.342;5.528;2024-01-06T09:07:30;101104.00;;;2.86;86.15
43161;BME280;40968;52.342;5.528;2024-01-06T09:09:57;101112.66;;;2.89;86.09
43161;BME280;40968;52.342;5.528;2024-01-06T09:12:24;101045.81;;;2.37;86.03
43161;BME280;40968;52.342;5.528;2024-01-06T09:14:52;100858.13;;;1.39;86.25
43161;BME280;40968;52.342;5.528;2024-01-06T09:17:19;100943.97;;;1.77;85.82
43161;BME280;40968;52.342;5.528;2024-01-06T09:19:45;101127.78;;;2.87;85.43
43161;BME280;40968;52.342;5.528;2024-01-06T09:22:13;100820.69;;;1.02;85.78
43161;BME280;40968;52.342;5.528;2024-01-06T09:24:40;100932.50;;;1.77;85.90
43161;BME280;40968;52.342;5.528;2024-01-06T09:27:06;101087.88;;;2.68;85.86
43161;BME280;40968;52.342;5.528;2024-01-06T09:29:33;101129.38;;;2.91;85.26
43161;BME280;40968;52.342;5.528;2024-01-06T09:32:01;101139.84;;;2.94;85.14
43161;BME280;40968;52.342;5.528;2024-01-06T09:34:28;101139.97;;;2.91;84.96
43161;BME280;40968;52.342;5.528;2024-01-06T09:36:55;101034.09;;;2.20;85.18
43161;BME280;40968;52.342;5.528;2024-01-06T09:39:21;101153.06;;;2.94;85.04
43161;BME280;40968;52.342;5.528;2024-01-06T09:41:48;100996.03;;;1.99;84.81
43161;BME280;40968;52.342;5.528;2024-01-06T09:44:14;101136.75;;;2.83;84.99
43161;BME280;40968;52.342;5.528;2024-01-06T09:46:42;101044.34;;;2.28;85.01
43161;BME280;40968;52.342;5.528;2024-01-06T09:49:10;101160.38;;;2.88;85.04
43161;BME280;40968;52.342;5.528;2024-01-06T09:51:39;101164.56;;;2.95;85.07
43161;BME280;40968;52.342;5.528;2024-01-06T09:54:09;101086.13;;;2.43;85.29
43161;BME280;40968;52.342;5.528;2024-01-06T09:56:36;100987.53;;;1.91;85.44
43161;BME280;40968;52.342;5.528;2024-01-06T09:59:03;101178.44;;;3.02;85.38
43161;BME280;40968;52.342;5.528;2024-01-06T10:01:30;101081.47;;;2.50;85.52
43161;BME280;40968;52.342;5.528;2024-01-06T10:03:56;100937.75;;;1.53;85.07
43161;BME280;40968;52.342;5.528;2024-01-06T10:06:24;100848.28;;;0.93;84.98
43161;BME280;40968;52.342;5.528;2024-01-06T10:08:52;101107.94;;;2.50;85.10
43161;BME280;40968;52.342;5.528;2024-01-06T10:11:19;101160.09;;;2.72;85.32
43161;BME280;40968;52.342;5.528;2024-01-06T10:13:48;101185.66;;;2.96;85.52
43161;BME280;40968;52.342;5.528;2024-01-06T10:16:15;101177.13;;;2.88;85.75
43161;BME280;40968;52.342;5.528;2024-01-06T10:18:41;101150.06;;;2.56;85.29
43161;BME280;40968;52.342;5.528;2024-01-06T10:21:08;101035.81;;;1.96;85.10
43161;BME280;40968;52.342;5.528;2024-01-06T10:23:36;101116.44;;;2.35;85.12
43161;BME280;40968;52.342;5.528;2024-01-06T10:26:03;101030.91;;;1.85;84.87
43161;BME280;40968;52.342;5.528;2024-01-06T10:28:30;101118.06;;;2.39;84.80
43161;BME280;40968;52.342;5.528;2024-01-06T10:30:57;101122.91;;;2.51;84.93
43161;BME280;40968;52.342;5.528;2024-01-06T10:33:25;101217.22;;;3.03;84.99
43161;BME280;40968;52.342;5.528;2024-01-06T10:35:52;101104.19;;;2.32;84.71
43161;BME280;40968;52.342;5.528;2024-01-06T10:38:19;101079.72;;;2.25;84.70
43161;BME280;40968;52.342;5.528;2024-01-06T10:40:57;101172.16;;;2.79;84.44
43161;BME280;40968;52.342;5.528;2024-01-06T10:43:26;101005.00;;;1.70;84.58
43161;BME280;40968;52.342;5.528;2024-01-06T10:45:53;101230.13;;;3.12;84.53
43161;BME280;40968;52.342;5.528;2024-01-06T10:48:24;100912.41;;;1.22;84.51
43161;BME280;40968;52.342;5.528;2024-01-06T10:50:51;101251.03;;;3.20;84.99
43161;BME280;40968;52.342;5.528;2024-01-06T10:53:18;100697.78;;;-0.08;84.05
43161;BME280;40968;52.342;5.528;2024-01-06T10:55:49;101239.44;;;3.22;83.79
43161;BME280;40968;52.342;5.528;2024-01-06T10:58:18;101179.75;;;2.90;83.55
43161;BME280;40968;52.342;5.528;2024-01-06T11:00:45;101129.66;;;2.60;83.52
43161;BME280;40968;52.342;5.528;2024-01-06T11:03:13;100951.84;;;1.54;83.50
43161;BME280;40968;52.342;5.528;2024-01-06T11:05:40;101233.91;;;3.28;83.30
43161;BME280;40968;52.342;5.528;2024-01-06T11:08:08;101092.06;;;2.50;83.35
43161;BME280;40968;52.342;5.528;2024-01-06T11:10:36;101234.63;;;3.34;83.67
43161;BME280;40968;52.342;5.528;2024-01-06T11:13:09;101188.03;;;3.04;83.66
43161;BME280;40968;52.342;5.528;2024-01-06T11:15:41;101195.09;;;3.04;83.59
43161;BME280;40968;52.342;5.528;2024-01-06T11:18:08;100997.41;;;1.86;83.43
43161;BME280;40968;52.342;5.528;2024-01-06T11:20:35;101120.66;;;2.64;83.65
43161;BME280;40968;52.342;5.528;2024-01-06T11:23:18;101241.06;;;3.26;83.64
43161;BME280;40968;52.342;5.528;2024-01-06T11:25:46;101246.94;;;3.35;83.57
43161;BME280;40968;52.342;5.528;2024-01-06T11:28:12;101217.91;;;3.08;83.17
43161;BME280;40968;52.342;5.528;2024-01-06T11:30:40;101064.78;;;2.24;83.13
43161;BME280;40968;52.342;5.528;2024-01-06T11:33:08;101167.06;;;2.74;82.50
43161;BME280;40968;52.342;5.528;2024-01-06T11:35:37;101032.41;;;1.92;82.96
43161;BME280;40968;52.342;5.528;2024-01-06T11:38:06;101036.66;;;1.96;82.91
43161;BME280;40968;52.342;5.528;2024-01-06T11:40:34;101217.53;;;2.93;82.82
43161;BME280;40968;52.342;5.528;2024-01-06T11:43:04;101024.66;;;1.88;82.54
43161;BME280;40968;52.342;5.528;2024-01-06T11:45:32;101186.22;;;2.81;82.70
43161;BME280;40968;52.342;5.528;2024-01-06T11:48:01;101032.41;;;1.92;82.76
43161;BME280;40968;52.342;5.528;2024-01-06T11:50:29;101208.59;;;2.97;82.74
43161;BME280;40968;52.342;5.528;2024-01-06T11:52:56;101252.03;;;3.17;82.65
43161;BME280;40968;52.342;5.528;2024-01-06T11:55:25;101100.66;;;2.31;82.34
43161;BME280;40968;52.342;5.528;2024-01-06T11:57:53;101148.31;;;2.55;82.67
43161;BME280;40968;52.342;5.528;2024-01-06T12:00:20;101029.19;;;1.84;82.53
43161;BME280;40968;52.342;5.528;2024-01-06T12:02:46;101018.81;;;1.78;82.83
43161;BME280;40968;52.342;5.528;2024-01-06T12:05:15;101053.47;;;1.95;83.09
43161;BME280;40968;52.342;5.528;2024-01-06T12:07:43;101206.94;;;2.93;83.32
43161;BME280;40968;52.342;5.528;2024-01-06T12:10:10;101220.66;;;3.05;83.41
43161;BME280;40968;52.342;5.528;2024-01-06T12:12:39;101240.66;;;3.13;83.05
43161;BME280;40968;52.342;5.528;2024-01-06T12:15:06;101170.69;;;2.72;83.39
43161;BME280;40968;52.342;5.528;2024-01-06T12:17:35;101221.66;;;3.02;83.52
43161;BME280;40968;52.342;5.528;2024-01-06T12:20:02;101262.38;;;3.23;83.55
43161;BME280;40968;52.342;5.528;2024-01-06T12:22:30;100994.56;;;1.67;83.78
43161;BME280;40968;52.342;5.528;2024-01-06T12:24:58;101257.06;;;3.23;83.55
43161;BME280;40968;52.342;5.528;2024-01-06T12:27:25;101257.75;;;3.05;83.22
43161;BME280;40968;52.342;5.528;2024-01-06T12:29:52;101181.38;;;2.69;83.37
43161;BME280;40968;52.342;5.528;2024-01-06T12:32:19;101283.81;;;3.17;83.14
43161;BME280;40968;52.342;5.528;2024-01-06T12:34:46;101273.75;;;3.02;82.85
43161;BME280;40968;52.342;5.528;2024-01-06T12:37:13;101121.56;;;2.14;82.99
43161;BME280;40968;52.342;5.528;2024-01-06T12:39:41;101009.31;;;1.47;82.73
43161;BME280;40968;52.342;5.528;2024-01-06T12:42:08;101278.72;;;3.11;83.06
43161;BME280;40968;52.342;5.528;2024-01-06T12:44:35;101072.31;;;1.85;82.49
43161;BME280;40968;52.342;5.528;2024-01-06T12:47:02;101187.44;;;2.47;82.62
43161;BME280;40968;52.342;5.528;2024-01-06T12:49:29;101251.50;;;2.82;83.22
43161;BME280;40968;52.342;5.528;2024-01-06T12:51:55;101224.75;;;2.64;82.73
43161;BME280;40968;52.342;5.528;2024-01-06T12:54:22;101203.09;;;2.53;82.56
43161;BME280;40968;52.342;5.528;2024-01-06T12:56:50;101287.00;;;3.02;82.79
43161;BME280;40968;52.342;5.528;2024-01-06T12:59:17;101179.38;;;2.25;82.69